Weather at Bradley International Airport

Public forecast

Using degrees Fahrenheit for public forecast. Weather courtesy of forecast.io.

Current aviation weather report (METAR) for Bradley International Airport

Retrieved 2020/11/28 03:51 UTC (47 minutes ago):

KBDL 280351Z 32005KT 10SM -RA BKN041 BKN060 09/04 A2997 RMK AO2 RAB00 SLP148 PCPN VRY LGT P0000 T00890044

Aviation forecast (TAF) for Bradley International Airport

Retrieved 2020-11-28 00:22 UTC (4 hours ago):

TAF KBDL 272320Z 2800/2906 31004KT P6SM OVC050 FM281000 29003KT P6SM SCT060 FM281800 31008KT P6SM SCT030 FM290400 27004KT P6SM FEW100